Latest Coastal Weather Observations for Samuel Hill

IDQ60701

Issued at 2:55 pm EST Tuesday 29 July 2014 (issued every 10 minutes, with the page automatically refreshed every 10 minutes)

About coastal observations | Map of coastal stations | Coastal observations for QLD | Marine services | Other Formats
Station Details ID: 033308 Name: SAMUEL HILL AERO Lat: -22.74 Lon: 150.66 Height: 31.0 m
Data from the previous 72 hours. | See also: Recent months at Samuel Hill
Date/Time
EST
Temp

°C
Wind Pressure Rain
since 9am
mm
Weather Cloud Vis
km
Sea
Height
m
Swell
Dir
 
Speed
knots
Gust
knots
hPa Trend Height
m
Period
s
Dir
29/02:30pm 22.8 ENE 8 12 1020.0 - 0.0 - - 10 - - - -
29/02:00pm 23.2 NNE 7 10 1020.1 - 0.0 - - 10 - - - -
29/01:30pm 23.5 NE 6 10 1020.5 - 0.0 - - 10 - - - -
29/01:00pm 23.4 E 5 10 1020.9 - 0.0 - - 10 - - - -
29/12:30pm 23.0 ENE 6 10 1021.3 - 0.0 - - 10 - - - -
29/12:00pm 22.6 ENE 6 11 1021.7 - 0.0 - - 10 - - - -
29/11:30am 22.6 SE 5 7 1022.3 - 0.0 - Partly cloudy 10 - - - -
29/11:00am 22.6 NE 5 9 1022.8 - 0.0 - Partly cloudy 10 - - - -
29/10:30am 21.9 NE 5 9 1023.2 - 0.0 - Partly cloudy 10 - - - -
29/10:01am 21.1 ESE 1 5 1023.5 - 0.0 - - 10 - - - -
29/10:00am 21.3 ESE 1 5 1023.5 - 0.0 - - 10 - - - -
29/09:30am 19.0 SSE 3 4 1023.9 - 0.0 - - 4 - - - -
29/09:00am 17.0 SE 3 4 1024.0 - 0.0 - - 3 - - - -
29/08:30am 14.9 E 1 3 1023.8 - 0.0 - - 3 - - - -
29/08:00am 12.2 CALM 0 0 1023.8 - 0.0 - - 3 - - - -
29/07:30am 9.8 CALM 0 0 1023.6 - 0.0 - - 7 - - - -
29/07:00am 8.0 CALM 0 0 1023.3 - 0.0 - Partly cloudy 0.7 - - - -
29/06:57am 7.9 CALM 0 0 1023.3 - 0.0 - Partly cloudy 0.8 - - - -
29/06:30am 7.6 CALM 0 0 1022.9 - 0.0 - Partly cloudy 3 - - - -
29/06:00am 7.9 CALM 0 0 1022.7 - 0.0 - Partly cloudy 4 - - - -
29/05:59am 7.8 CALM 0 0 1022.7 - 0.0 - Partly cloudy 4 - - - -
29/05:49am 7.8 CALM 0 0 1022.6 - 0.0 - Partly cloudy 3 - - - -
29/05:30am 7.9 CALM 0 0 1022.4 - 0.0 - Partly cloudy 0.6 - - - -
29/05:00am 8.0 CALM 0 0 1022.1 - 0.0 - Cloudy 0.2 - - - -
29/04:30am 8.4 CALM 0 0 1021.8 - 0.0 - Partly cloudy 1 - - - -
29/04:27am 8.3 CALM 0 0 1021.7 - 0.0 - Partly cloudy 7 - - - -
29/04:24am 8.2 CALM 0 0 1021.7 - 0.0 - Partly cloudy 10 - - - -
29/04:00am 8.2 CALM 0 0 1021.4 - 0.0 - - 10 - - - -
29/03:30am 8.1 CALM 0 0 1021.1 - 0.0 - - 10 - - - -
29/03:04am 8.4 W 0 0 1021.1 - 0.0 - Partly cloudy 10 - - - -
29/03:00am 8.6 CALM 0 0 1021.2 - 0.0 - Mostly clear 10 - - - -
29/02:55am 8.6 CALM 0 0 1021.2 - 0.0 - Partly cloudy 8 - - - -
29/02:30am 8.7 CALM 0 0 1021.3 - 0.0 - Partly cloudy 5 - - - -
29/02:29am 8.7 CALM 0 0 1021.3 - 0.0 - Partly cloudy 6 - - - -
29/02:00am 8.8 CALM 0 0 1021.3 - 0.0 - - 10 - - - -
29/01:30am 9.1 CALM 0 0 1021.5 - 0.0 - - 10 - - - -
29/01:00am 9.4 CALM 0 0 1021.7 - 0.0 - - 10 - - - -
29/12:30am 9.4 CALM 0 0 1021.9 - 0.0 - - 10 - - - -
29/12:00am 9.7 W 0 0 1022.0 - 0.0 - - 10 - - - -
 
Date/Time
EST
Temp

°C
Wind Pressure Rain
since 9am
mm
Weather Cloud Vis
km
Sea
Height
m
Swell
Dir
 
Speed
knots
Gust
knots
hPa Trend Height
m
Period
s
Dir
28/11:30pm 10.1 CALM 0 0 1022.0 - 0.0 - - 10 - - - -
28/11:00pm 10.3 CALM 0 0 1022.1 - 0.0 - - 10 - - - -
28/10:30pm 10.7 CALM 0 0 1022.1 - 0.0 - - 10 - - - -
28/10:00pm 11.0 CALM 0 0 1022.1 - 0.0 - - 10 - - - -
28/09:30pm 11.4 CALM 0 0 1021.9 - 0.0 - - 10 - - - -
28/09:00pm 11.8 CALM 0 0 1021.8 - 0.0 - - 10 - - - -
28/08:30pm 12.3 CALM 0 0 1021.7 - 0.0 - - 10 - - - -
28/08:00pm 13.0 CALM 0 0 1021.6 - 0.0 - - 10 - - - -
28/07:30pm 13.6 CALM 0 0 1021.4 - 0.0 - - 10 - - - -
28/07:00pm 14.4 CALM 0 0 1021.1 - 0.0 - - 10 - - - -
28/06:30pm 15.7 CALM 0 0 1020.9 - 0.0 - - 10 - - - -
28/06:00pm 17.3 CALM 0 0 1020.6 - 0.0 - - 10 - - - -
28/05:30pm 19.2 ENE 4 5 1020.5 - 0.0 - - 10 - - - -
28/05:00pm 20.4 E 5 8 1020.2 - 0.0 - - 10 - - - -
28/04:30pm 21.1 E 8 11 1020.0 - 0.0 - - 10 - - - -
28/04:00pm 21.8 E 8 11 1019.7 - 0.0 - - 10 - - - -
28/03:30pm 22.5 ENE 8 11 1019.7 - 0.0 - Partly cloudy 10 - - - -
28/03:00pm 22.4 ESE 7 10 1019.7 - 0.0 - - 10 - - - -
28/02:30pm 22.6 ESE 7 10 1020.0 - 0.0 - - 10 - - - -
28/02:00pm 22.9 E 8 12 1020.4 - 0.0 - Partly cloudy 10 - - - -
28/01:30pm 22.8 ESE 7 11 1020.7 - 0.0 - Partly cloudy 10 - - - -
28/01:00pm 22.7 ESE 7 9 1021.1 - 0.0 - Partly cloudy 10 - - - -
28/12:30pm 22.8 SE 6 10 1021.7 - 0.0 - Partly cloudy 10 - - - -
28/12:00pm 21.0 SSE 5 9 1022.3 - 0.0 - Mostly cloudy 10 - - - -
28/11:30am 21.9 S 7 10 1022.9 - 0.0 - Partly cloudy 10 - - - -
28/11:00am 21.6 SE 6 10 1023.4 - 0.0 - Partly cloudy 10 - - - -
28/10:30am 20.4 SSE 5 8 1023.8 - 0.0 - Cloudy 10 - - - -
28/10:00am 19.6 SE 6 9 1024.0 - 0.0 - Partly cloudy 10 - - - -
28/09:30am 18.4 SE 5 8 1023.9 - 0.0 - Partly cloudy 10 - - - -
28/09:00am 17.2 SSE 2 4 1024.0 - 0.2 - Partly cloudy 10 - - - -
28/08:44am 15.7 S 3 7 1023.8 - 0.2 - Partly cloudy 10 - - - -
28/08:41am 15.8 S 2 6 1023.7 - 0.2 - Partly cloudy 10 - - - -
28/08:30am 14.7 CALM 0 0 1023.6 - 0.2 - Partly cloudy 4 - - - -
28/08:00am 13.0 CALM 0 0 1023.4 - 0.2 - Cloudy 0.2 - - - -
28/07:30am 11.3 CALM 0 0 1023.2 - 0.2 - Cloudy 0.1 - - - -
28/07:00am 10.4 CALM 0 0 1022.9 - 0.0 - Cloudy 0.1 - - - -
28/06:30am 10.4 CALM 0 0 1022.5 - 0.0 - Cloudy 0.5 - - - -
28/06:00am 10.7 CALM 0 0 1022.1 - 0.0 - Cloudy 0.1 - - - -
28/05:30am 10.2 CALM 0 0 1021.8 - 0.0 - Cloudy 0.5 - - - -
28/05:00am 9.9 CALM 0 0 1021.4 - 0.0 - Cloudy 0.4 - - - -
28/04:30am 9.9 CALM 0 0 1021.3 - 0.0 - Cloudy 0.2 - - - -
28/04:00am 9.6 CALM 0 0 1021.5 - 0.0 - Cloudy 0.4 - - - -
28/03:35am 9.6 CALM 0 0 1021.5 - 0.0 - Cloudy 4 - - - -
28/03:30am 9.6 CALM 0 0 1021.5 - 0.0 - Cloudy 10 - - - -
28/03:12am 9.5 CALM 0 0 1021.5 - 0.0 - Partly cloudy 10 - - - -
28/03:00am 9.5 CALM 0 0 1021.5 - 0.0 - - 10 - - - -
28/02:30am 9.7 CALM 0 0 1021.7 - 0.0 - - 10 - - - -
28/02:00am 10.1 CALM 0 0 1021.8 - 0.0 - Partly cloudy 10 - - - -
28/01:30am 9.8 CALM 0 0 1022.1 - 0.0 - - 10 - - - -
28/01:00am 9.8 CALM 0 0 1022.4 - 0.0 - - 10 - - - -
28/12:30am 10.0 CALM 0 0 1022.7 - 0.0 - - 10 - - - -
28/12:00am 10.4 CALM 0 0 1022.9 - 0.0 - - 10 - - - -
 
Date/Time
EST
Temp

°C
Wind Pressure Rain
since 9am
mm
Weather Cloud Vis
km
Sea
Height
m
Swell
Dir
 
Speed
knots
Gust
knots
hPa Trend Height
m
Period
s
Dir
27/11:30pm 10.4 CALM 0 0 1023.2 - 0.0 - - 10 - - - -
27/11:00pm 10.9 CALM 0 0 1023.2 - 0.0 - - 10 - - - -
27/10:30pm 11.0 CALM 0 0 1023.2 - 0.0 - - 10 - - - -
27/10:00pm 11.7 CALM 0 0 1023.2 - 0.0 - - 10 - - - -
27/09:30pm 11.8 CALM 0 0 1023.1 - 0.0 - - 10 - - - -
27/09:00pm 12.3 CALM 0 0 1022.9 - 0.0 - - 10 - - - -
27/08:30pm 13.0 CALM 0 0 1022.6 - 0.0 - - 10 - - - -
27/08:00pm 13.4 CALM 0 0 1022.3 - 0.0 - - 10 - - - -
27/07:30pm 14.3 CALM 0 3 1022.0 - 0.0 - - 10 - - - -
27/07:00pm 15.1 NE 2 4 1021.6 - 0.0 - - 10 - - - -
27/06:30pm 15.7 CALM 0 0 1021.0 - 0.0 - - 10 - - - -
27/06:00pm 17.6 CALM 0 0 1020.8 - 0.0 - - 10 - - - -
27/05:30pm 19.7 ENE 4 5 1020.6 - 0.0 - - 10 - - - -
27/05:00pm 21.4 ENE 5 7 1020.4 - 0.0 - - 10 - - - -
27/04:30pm 22.4 ENE 6 8 1020.3 - 0.0 - - 10 - - - -
27/04:00pm 23.3 ENE 5 8 1020.4 - 0.0 - - 10 - - - -
27/03:30pm 23.4 ESE 6 10 1020.4 - 0.0 - - 10 - - - -
27/03:00pm 23.5 ESE 7 11 1020.4 - 0.0 - - 10 - - - -
27/02:30pm 24.1 ESE 7 12 1020.5 - 0.0 - - 10 - - - -
27/02:00pm 23.7 SE 7 12 1020.7 - 0.0 - - 10 - - - -
27/01:30pm 23.7 SSE 8 12 1021.0 - 0.0 - - 10 - - - -
27/01:00pm 24.0 SE 8 13 1021.5 - 0.0 - - 10 - - - -
27/12:30pm 23.8 SE 8 13 1022.0 - 0.0 - - 10 - - - -
27/12:00pm 23.0 SE 9 15 1022.5 - 0.0 - - 10 - - - -
27/11:30am 21.8 SSE 8 12 1023.1 - 0.0 - Partly cloudy 10 - - - -
27/11:00am 21.0 S 7 10 1023.5 - 0.0 - Partly cloudy 10 - - - -
27/10:36am 20.7 SE 6 9 1023.8 - 0.0 - Partly cloudy 10 - - - -
27/10:30am 20.2 SSE 6 10 1023.9 - 0.0 - Partly cloudy 10 - - - -
27/10:00am 19.0 SE 7 11 1024.1 - 0.0 - Cloudy 10 - - - -
27/09:30am 18.0 SE 8 11 1024.3 - 0.0 - Cloudy 8 - - - -
27/09:25am 18.2 SE 7 9 1024.3 - 0.0 - Cloudy 8 - - - -
27/09:11am 17.9 SSE 6 9 1024.3 - 0.0 - Cloudy 7 - - - -
27/09:00am 17.8 SE 7 11 1024.3 - 0.2 - Cloudy 8 - - - -
27/08:30am 17.6 SSE 7 12 1024.0 - 0.2 - Cloudy 9 - - - -
27/08:00am 17.4 S 1 5 1023.6 - 0.2 - Cloudy 10 - - - -
27/07:30am 16.3 SSW 1 4 1023.5 - 0.2 - Cloudy 10 - - - -
27/07:00am 15.6 CALM 0 4 1023.2 - 0.2 - Cloudy 10 - - - -
27/06:30am 15.9 WSW 1 4 1023.0 - 0.2 - Cloudy 10 - - - -
27/06:00am 16.4 CALM 0 2 1022.9 - 0.2 - Cloudy 10 - - - -
27/05:30am 16.1 CALM 0 3 1022.7 - 0.2 - Cloudy 9 - - - -
27/05:27am 16.1 CALM 0 0 1022.7 - 0.2 - Cloudy 9 - - - -
27/05:00am 15.5 CALM 0 0 1022.6 - 0.2 - Cloudy 4 - - - -
27/04:30am 15.6 CALM 0 0 1022.4 - 0.0 - Cloudy 0.6 - - - -
27/04:00am 15.3 CALM 0 0 1022.4 - 0.0 - Partly cloudy 0.7 - - - -
27/03:30am 15.4 CALM 0 0 1022.4 - 0.0 - Cloudy 7 - - - -
27/03:14am 15.7 CALM 0 0 1022.4 - 0.0 - Partly cloudy 7 - - - -
27/03:00am 16.1 CALM 0 0 1022.5 - 0.0 - Cloudy 10 - - - -
27/02:33am 15.3 CALM 0 0 1022.8 - 0.0 - Cloudy 10 - - - -
27/02:30am 15.2 CALM 0 0 1022.8 - 0.0 - Cloudy 10 - - - -
27/02:08am 14.4 CALM 0 0 1023.0 - 0.0 - Partly cloudy 3 - - - -
27/02:00am 14.4 CALM 0 0 1023.1 - 0.0 - Partly cloudy 6 - - - -
27/01:38am 15.7 SSW 1 4 1023.2 - 0.0 - Partly cloudy 7 - - - -
27/01:30am 15.8 CALM 0 0 1023.3 - 0.0 - Partly cloudy 9 - - - -
27/01:00am 16.5 S 2 4 1023.8 - 0.0 - - 10 - - - -
27/12:30am 16.2 CALM 0 0 1024.0 - 0.0 - - 10 - - - -
27/12:00am 16.3 CALM 0 0 1024.0 - 0.0 - - 10 - - - -
 
Date/Time
EST
Temp

°C
Wind Pressure Rain
since 9am
mm
Weather Cloud Vis
km
Sea
Height
m
Swell
Dir
 
Speed
knots
Gust
knots
hPa Trend Height
m
Period
s
Dir
26/11:30pm 16.7 SW 3 5 1024.4 - 0.0 - - 10 - - - -
26/11:00pm 16.7 CALM 0 0 1024.4 - 0.0 - - 10 - - - -
26/10:30pm 17.0 SSW 4 5 1024.7 - 0.0 - - 10 - - - -
26/10:00pm 17.1 CALM 0 0 1024.7 - 0.0 - - 10 - - - -
26/09:30pm 17.5 S 1 4 1025.1 - 0.0 - - 10 - - - -
26/09:00pm 17.6 SSE 3 5 1025.0 - 0.0 - - 10 - - - -
26/08:30pm 17.8 S 3 5 1024.8 - 0.0 - Partly cloudy 10 - - - -
26/08:00pm 17.8 CALM 0 0 1024.7 - 0.0 - Partly cloudy 10 - - - -
26/07:30pm 17.9 S 3 5 1024.6 - 0.0 - Partly cloudy 10 - - - -
26/07:00pm 17.9 ESE 1 3 1024.4 - 0.0 - Partly cloudy 10 - - - -
26/06:30pm 18.1 SE 4 5 1024.1 - 0.0 - - 10 - - - -
26/06:00pm 18.5 SE 4 6 1024.0 - 0.0 - Partly cloudy 10 - - - -
26/05:30pm 18.6 S 3 5 1023.7 - 0.0 - Partly cloudy 10 - - - -
26/05:00pm 19.0 SSE 4 5 1023.5 - 0.0 - - 10 - - - -
26/04:30pm 19.3 SE 5 7 1023.3 - 0.0 - - 10 - - - -
26/04:00pm 19.7 SE 5 7 1023.2 - 0.0 - - 10 - - - -
26/03:30pm 20.2 SE 5 7 1023.2 - 0.0 - - 10 - - - -
26/03:00pm 20.6 SE 5 8 1022.9 - 0.0 - - 10 - - - -

Other Formats:

Comma delimited format used in spreadsheet applications
http://www.bom.gov.au/fwo/IDQ60701/IDQ60701.94370.axf

JavaScript Object Notation format (JSON) in row-major order
http://www.bom.gov.au/fwo/IDQ60701/IDQ60701.94370.json